sensor_id;sensor_type;location;lat;lon;timestamp;P1;durP1;ratioP1;P2;durP2;ratioP2
23716;SDS011;22094;52.130;5.598;2023-04-15T00:00:26;11.07;;;8.27;;
23716;SDS011;22094;52.130;5.598;2023-04-15T00:02:53;10.20;;;8.30;;
23716;SDS011;22094;52.130;5.598;2023-04-15T00:05:19;13.70;;;8.57;;
23716;SDS011;22094;52.130;5.598;2023-04-15T00:07:44;11.43;;;8.27;;
23716;SDS011;22094;52.130;5.598;2023-04-15T00:10:11;14.32;;;8.70;;
23716;SDS011;22094;52.130;5.598;2023-04-15T00:12:36;13.90;;;8.55;;
23716;SDS011;22094;52.130;5.598;2023-04-15T00:15:02;13.18;;;8.45;;
23716;SDS011;22094;52.130;5.598;2023-04-15T00:17:28;12.07;;;8.13;;
23716;SDS011;22094;52.130;5.598;2023-04-15T00:19:54;14.05;;;8.45;;
23716;SDS011;22094;52.130;5.598;2023-04-15T00:22:19;12.30;;;8.50;;
23716;SDS011;22094;52.130;5.598;2023-04-15T00:24:45;12.15;;;8.32;;
23716;SDS011;22094;52.130;5.598;2023-04-15T00:27:11;16.58;;;8.38;;
23716;SDS011;22094;52.130;5.598;2023-04-15T00:29:36;13.82;;;9.00;;
23716;SDS011;22094;52.130;5.598;2023-04-15T00:32:02;14.18;;;8.50;;
23716;SDS011;22094;52.130;5.598;2023-04-15T00:34:27;13.40;;;8.60;;
23716;SDS011;22094;52.130;5.598;2023-04-15T00:36:53;14.73;;;9.48;;
23716;SDS011;22094;52.130;5.598;2023-04-15T00:39:19;12.93;;;8.30;;
23716;SDS011;22094;52.130;5.598;2023-04-15T00:41:44;13.55;;;8.68;;
23716;SDS011;22094;52.130;5.598;2023-04-15T00:44:10;13.55;;;7.97;;
23716;SDS011;22094;52.130;5.598;2023-04-15T00:46:37;14.60;;;8.07;;
23716;SDS011;22094;52.130;5.598;2023-04-15T00:49:04;10.82;;;7.88;;
23716;SDS011;22094;52.130;5.598;2023-04-15T00:51:30;13.02;;;8.65;;
23716;SDS011;22094;52.130;5.598;2023-04-15T00:53:57;13.32;;;8.55;;
23716;SDS011;22094;52.130;5.598;2023-04-15T00:56:24;17.27;;;8.63;;
23716;SDS011;22094;52.130;5.598;2023-04-15T00:58:51;15.82;;;9.10;;
23716;SDS011;22094;52.130;5.598;2023-04-15T01:01:20;17.02;;;9.27;;
23716;SDS011;22094;52.130;5.598;2023-04-15T01:03:46;11.98;;;8.63;;
23716;SDS011;22094;52.130;5.598;2023-04-15T01:06:15;15.00;;;9.10;;
23716;SDS011;22094;52.130;5.598;2023-04-15T01:08:41;17.70;;;8.77;;
23716;SDS011;22094;52.130;5.598;2023-04-15T01:11:07;15.25;;;9.65;;
23716;SDS011;22094;52.130;5.598;2023-04-15T01:13:34;14.82;;;9.43;;
23716;SDS011;22094;52.130;5.598;2023-04-15T01:16:00;16.77;;;9.52;;
23716;SDS011;22094;52.130;5.598;2023-04-15T01:18:27;16.65;;;9.25;;
23716;SDS011;22094;52.130;5.598;2023-04-15T01:20:53;11.30;;;8.80;;
23716;SDS011;22094;52.130;5.598;2023-04-15T01:23:19;15.15;;;9.23;;
23716;SDS011;22094;52.130;5.598;2023-04-15T01:25:46;15.30;;;8.85;;
23716;SDS011;22094;52.130;5.598;2023-04-15T01:28:13;13.68;;;8.32;;
23716;SDS011;22094;52.130;5.598;2023-04-15T01:30:40;12.98;;;9.15;;
23716;SDS011;22094;52.130;5.598;2023-04-15T01:33:05;15.25;;;9.57;;
23716;SDS011;22094;52.130;5.598;2023-04-15T01:35:31;17.17;;;9.35;;
23716;SDS011;22094;52.130;5.598;2023-04-15T01:38:00;17.58;;;9.60;;
23716;SDS011;22094;52.130;5.598;2023-04-15T01:40:30;15.25;;;9.75;;
23716;SDS011;22094;52.130;5.598;2023-04-15T01:42:56;13.88;;;9.63;;
23716;SDS011;22094;52.130;5.598;2023-04-15T01:45:21;16.95;;;9.70;;
23716;SDS011;22094;52.130;5.598;2023-04-15T01:47:47;12.93;;;8.88;;
23716;SDS011;22094;52.130;5.598;2023-04-15T01:50:13;12.50;;;8.90;;
23716;SDS011;22094;52.130;5.598;2023-04-15T01:52:39;13.38;;;9.55;;
23716;SDS011;22094;52.130;5.598;2023-04-15T01:55:05;17.42;;;9.50;;
23716;SDS011;22094;52.130;5.598;2023-04-15T01:57:32;12.38;;;8.75;;
23716;SDS011;22094;52.130;5.598;2023-04-15T01:59:58;11.45;;;8.93;;
23716;SDS011;22094;52.130;5.598;2023-04-15T02:02:23;13.77;;;8.52;;
23716;SDS011;22094;52.130;5.598;2023-04-15T02:04:49;12.88;;;8.43;;
23716;SDS011;22094;52.130;5.598;2023-04-15T02:07:15;13.35;;;9.63;;
23716;SDS011;22094;52.130;5.598;2023-04-15T02:09:41;11.65;;;9.23;;
23716;SDS011;22094;52.130;5.598;2023-04-15T02:12:07;14.90;;;9.25;;
23716;SDS011;22094;52.130;5.598;2023-04-15T02:14:33;19.63;;;9.80;;
23716;SDS011;22094;52.130;5.598;2023-04-15T02:16:58;12.95;;;8.20;;
23716;SDS011;22094;52.130;5.598;2023-04-15T02:19:31;11.98;;;9.27;;
23716;SDS011;22094;52.130;5.598;2023-04-15T02:21:59;12.75;;;8.88;;
23716;SDS011;22094;52.130;5.598;2023-04-15T02:24:31;12.13;;;8.95;;
23716;SDS011;22094;52.130;5.598;2023-04-15T02:26:59;12.57;;;9.45;;
23716;SDS011;22094;52.130;5.598;2023-04-15T02:29:26;15.23;;;8.27;;
23716;SDS011;22094;52.130;5.598;2023-04-15T02:31:51;18.92;;;9.50;;
23716;SDS011;22094;52.130;5.598;2023-04-15T02:34:17;12.30;;;9.15;;
23716;SDS011;22094;52.130;5.598;2023-04-15T02:36:43;14.63;;;8.80;;
23716;SDS011;22094;52.130;5.598;2023-04-15T02:39:08;16.08;;;9.40;;
23716;SDS011;22094;52.130;5.598;2023-04-15T02:41:34;13.75;;;8.73;;
23716;SDS011;22094;52.130;5.598;2023-04-15T02:44:02;14.43;;;9.63;;
23716;SDS011;22094;52.130;5.598;2023-04-15T02:46:31;14.68;;;9.55;;
23716;SDS011;22094;52.130;5.598;2023-04-15T02:48:56;14.27;;;9.32;;
23716;SDS011;22094;52.130;5.598;2023-04-15T02:51:23;12.82;;;9.18;;
23716;SDS011;22094;52.130;5.598;2023-04-15T02:53:49;14.70;;;9.27;;
23716;SDS011;22094;52.130;5.598;2023-04-15T02:56:15;15.98;;;8.98;;
23716;SDS011;22094;52.130;5.598;2023-04-15T02:58:42;13.35;;;9.15;;
23716;SDS011;22094;52.130;5.598;2023-04-15T03:01:09;13.10;;;9.13;;
23716;SDS011;22094;52.130;5.598;2023-04-15T03:03:34;15.00;;;9.65;;
23716;SDS011;22094;52.130;5.598;2023-04-15T03:06:00;17.10;;;9.27;;
23716;SDS011;22094;52.130;5.598;2023-04-15T03:08:25;15.25;;;9.75;;
23716;SDS011;22094;52.130;5.598;2023-04-15T03:10:51;20.15;;;9.45;;
23716;SDS011;22094;52.130;5.598;2023-04-15T03:13:17;13.75;;;9.40;;
23716;SDS011;22094;52.130;5.598;2023-04-15T03:15:46;16.35;;;9.93;;
23716;SDS011;22094;52.130;5.598;2023-04-15T03:18:12;18.33;;;9.88;;
23716;SDS011;22094;52.130;5.598;2023-04-15T03:20:38;14.07;;;9.10;;
23716;SDS011;22094;52.130;5.598;2023-04-15T03:23:03;15.50;;;9.85;;
23716;SDS011;22094;52.130;5.598;2023-04-15T03:25:29;13.05;;;9.52;;
23716;SDS011;22094;52.130;5.598;2023-04-15T03:27:55;18.08;;;10.38;;
23716;SDS011;22094;52.130;5.598;2023-04-15T03:30:26;18.63;;;10.20;;
23716;SDS011;22094;52.130;5.598;2023-04-15T03:32:52;14.43;;;10.23;;
23716;SDS011;22094;52.130;5.598;2023-04-15T03:35:17;13.98;;;10.07;;
23716;SDS011;22094;52.130;5.598;2023-04-15T03:37:43;17.88;;;10.90;;
23716;SDS011;22094;52.130;5.598;2023-04-15T03:40:09;16.75;;;10.77;;
23716;SDS011;22094;52.130;5.598;2023-04-15T03:42:34;17.70;;;10.85;;
23716;SDS011;22094;52.130;5.598;2023-04-15T03:45:00;16.55;;;10.77;;
23716;SDS011;22094;52.130;5.598;2023-04-15T03:47:26;20.75;;;10.90;;
23716;SDS011;22094;52.130;5.598;2023-04-15T03:49:51;16.70;;;11.30;;
23716;SDS011;22094;52.130;5.598;2023-04-15T03:52:17;14.63;;;10.70;;
23716;SDS011;22094;52.130;5.598;2023-04-15T03:54:43;15.88;;;10.95;;
23716;SDS011;22094;52.130;5.598;2023-04-15T03:57:09;19.35;;;11.70;;
23716;SDS011;22094;52.130;5.598;2023-04-15T03:59:35;15.07;;;11.52;;
23716;SDS011;22094;52.130;5.598;2023-04-15T04:02:00;17.27;;;11.60;;
23716;SDS011;22094;52.130;5.598;2023-04-15T04:04:26;21.27;;;11.82;;
23716;SDS011;22094;52.130;5.598;2023-04-15T04:06:51;16.13;;;11.27;;
23716;SDS011;22094;52.130;5.598;2023-04-15T04:09:17;19.33;;;11.55;;
23716;SDS011;22094;52.130;5.598;2023-04-15T04:11:42;18.90;;;11.82;;
23716;SDS011;22094;52.130;5.598;2023-04-15T04:14:09;17.98;;;12.07;;
23716;SDS011;22094;52.130;5.598;2023-04-15T04:16:35;19.08;;;11.90;;
23716;SDS011;22094;52.130;5.598;2023-04-15T04:19:00;19.55;;;12.48;;
23716;SDS011;22094;52.130;5.598;2023-04-15T04:21:26;18.15;;;12.23;;
23716;SDS011;22094;52.130;5.598;2023-04-15T04:23:52;22.08;;;12.48;;
23716;SDS011;22094;52.130;5.598;2023-04-15T04:26:17;20.10;;;12.63;;
23716;SDS011;22094;52.130;5.598;2023-04-15T04:28:43;19.10;;;12.63;;
23716;SDS011;22094;52.130;5.598;2023-04-15T04:31:09;27.13;;;13.63;;
23716;SDS011;22094;52.130;5.598;2023-04-15T04:33:35;19.13;;;13.02;;
23716;SDS011;22094;52.130;5.598;2023-04-15T04:36:01;18.38;;;13.25;;
23716;SDS011;22094;52.130;5.598;2023-04-15T04:38:27;20.15;;;12.80;;
23716;SDS011;22094;52.130;5.598;2023-04-15T04:40:52;18.88;;;13.00;;
23716;SDS011;22094;52.130;5.598;2023-04-15T04:43:18;21.50;;;13.27;;
23716;SDS011;22094;52.130;5.598;2023-04-15T04:45:47;24.00;;;13.75;;
23716;SDS011;22094;52.130;5.598;2023-04-15T04:48:13;22.58;;;13.38;;
23716;SDS011;22094;52.130;5.598;2023-04-15T04:50:38;22.42;;;13.30;;
23716;SDS011;22094;52.130;5.598;2023-04-15T04:53:04;23.05;;;14.30;;
23716;SDS011;22094;52.130;5.598;2023-04-15T04:55:29;21.17;;;13.82;;
23716;SDS011;22094;52.130;5.598;2023-04-15T04:57:55;23.13;;;14.30;;
23716;SDS011;22094;52.130;5.598;2023-04-15T05:00:21;22.08;;;13.63;;
23716;SDS011;22094;52.130;5.598;2023-04-15T05:02:47;18.85;;;13.55;;
23716;SDS011;22094;52.130;5.598;2023-04-15T05:05:12;21.63;;;13.20;;
23716;SDS011;22094;52.130;5.598;2023-04-15T05:07:38;19.92;;;14.00;;
23716;SDS011;22094;52.130;5.598;2023-04-15T05:10:06;19.45;;;12.98;;
23716;SDS011;22094;52.130;5.598;2023-04-15T05:12:32;18.30;;;13.10;;
23716;SDS011;22094;52.130;5.598;2023-04-15T05:14:58;19.30;;;13.38;;
23716;SDS011;22094;52.130;5.598;2023-04-15T05:17:23;16.65;;;12.32;;
23716;SDS011;22094;52.130;5.598;2023-04-15T05:19:49;15.95;;;12.23;;
23716;SDS011;22094;52.130;5.598;2023-04-15T05:22:15;17.73;;;13.27;;
23716;SDS011;22094;52.130;5.598;2023-04-15T05:24:40;20.58;;;12.73;;
23716;SDS011;22094;52.130;5.598;2023-04-15T05:27:06;15.93;;;12.07;;
23716;SDS011;22094;52.130;5.598;2023-04-15T05:29:32;16.98;;;12.55;;
23716;SDS011;22094;52.130;5.598;2023-04-15T05:31:58;18.52;;;12.32;;
23716;SDS011;22094;52.130;5.598;2023-04-15T05:34:24;17.92;;;12.27;;
23716;SDS011;22094;52.130;5.598;2023-04-15T05:36:50;21.27;;;12.02;;
23716;SDS011;22094;52.130;5.598;2023-04-15T05:39:16;17.00;;;11.15;;
23716;SDS011;22094;52.130;5.598;2023-04-15T05:41:42;14.82;;;10.30;;
23716;SDS011;22094;52.130;5.598;2023-04-15T05:44:08;13.10;;;10.02;;
23716;SDS011;22094;52.130;5.598;2023-04-15T05:46:33;14.80;;;10.30;;
23716;SDS011;22094;52.130;5.598;2023-04-15T05:48:59;16.38;;;9.82;;
23716;SDS011;22094;52.130;5.598;2023-04-15T05:51:24;13.38;;;9.93;;
23716;SDS011;22094;52.130;5.598;2023-04-15T05:53:50;15.90;;;9.55;;
23716;SDS011;22094;52.130;5.598;2023-04-15T05:56:15;12.95;;;9.40;;
23716;SDS011;22094;52.130;5.598;2023-04-15T05:58:41;13.55;;;9.05;;
23716;SDS011;22094;52.130;5.598;2023-04-15T06:01:07;13.27;;;8.55;;
23716;SDS011;22094;52.130;5.598;2023-04-15T06:03:32;12.00;;;10.13;;
23716;SDS011;22094;52.130;5.598;2023-04-15T06:05:58;14.02;;;9.52;;
23716;SDS011;22094;52.130;5.598;2023-04-15T06:08:26;13.13;;;9.68;;
23716;SDS011;22094;52.130;5.598;2023-04-15T06:10:55;14.07;;;10.02;;
23716;SDS011;22094;52.130;5.598;2023-04-15T06:13:20;15.82;;;10.40;;
23716;SDS011;22094;52.130;5.598;2023-04-15T06:15:46;16.45;;;10.82;;
23716;SDS011;22094;52.130;5.598;2023-04-15T06:18:11;12.93;;;9.98;;
23716;SDS011;22094;52.130;5.598;2023-04-15T06:20:37;12.75;;;10.88;;
23716;SDS011;22094;52.130;5.598;2023-04-15T06:23:03;14.70;;;11.25;;
23716;SDS011;22094;52.130;5.598;2023-04-15T06:25:28;15.82;;;12.07;;
23716;SDS011;22094;52.130;5.598;2023-04-15T06:27:54;15.27;;;11.40;;
23716;SDS011;22094;52.130;5.598;2023-04-15T06:30:20;16.45;;;11.70;;
23716;SDS011;22094;52.130;5.598;2023-04-15T06:32:45;19.13;;;11.63;;
23716;SDS011;22094;52.130;5.598;2023-04-15T06:35:11;15.80;;;11.35;;
23716;SDS011;22094;52.130;5.598;2023-04-15T06:37:36;15.75;;;11.65;;
23716;SDS011;22094;52.130;5.598;2023-04-15T06:40:02;15.13;;;11.80;;
23716;SDS011;22094;52.130;5.598;2023-04-15T06:42:29;16.60;;;11.63;;
23716;SDS011;22094;52.130;5.598;2023-04-15T06:44:55;17.63;;;11.55;;
23716;SDS011;22094;52.130;5.598;2023-04-15T06:47:20;14.27;;;10.55;;
23716;SDS011;22094;52.130;5.598;2023-04-15T06:49:46;13.20;;;10.73;;
23716;SDS011;22094;52.130;5.598;2023-04-15T06:52:12;14.48;;;10.63;;
23716;SDS011;22094;52.130;5.598;2023-04-15T06:54:37;14.85;;;11.27;;
23716;SDS011;22094;52.130;5.598;2023-04-15T06:57:03;15.18;;;11.10;;
23716;SDS011;22094;52.130;5.598;2023-04-15T06:59:28;14.57;;;10.15;;
23716;SDS011;22094;52.130;5.598;2023-04-15T07:01:54;13.43;;;10.73;;
23716;SDS011;22094;52.130;5.598;2023-04-15T07:04:19;12.88;;;10.27;;
23716;SDS011;22094;52.130;5.598;2023-04-15T07:06:45;15.20;;;11.18;;
23716;SDS011;22094;52.130;5.598;2023-04-15T07:09:11;14.02;;;11.20;;
23716;SDS011;22094;52.130;5.598;2023-04-15T07:11:36;17.45;;;10.48;;
23716;SDS011;22094;52.130;5.598;2023-04-15T07:14:02;14.25;;;10.82;;
23716;SDS011;22094;52.130;5.598;2023-04-15T07:16:28;13.15;;;9.82;;
23716;SDS011;22094;52.130;5.598;2023-04-15T07:18:54;12.80;;;10.88;;
23716;SDS011;22094;52.130;5.598;2023-04-15T07:21:20;15.43;;;10.50;;
23716;SDS011;22094;52.130;5.598;2023-04-15T07:23:45;13.43;;;10.18;;
23716;SDS011;22094;52.130;5.598;2023-04-15T07:26:11;13.63;;;9.15;;
23716;SDS011;22094;52.130;5.598;2023-04-15T07:28:37;9.88;;;8.13;;
23716;SDS011;22094;52.130;5.598;2023-04-15T07:31:03;8.77;;;7.50;;
23716;SDS011;22094;52.130;5.598;2023-04-15T07:33:29;8.55;;;7.45;;
23716;SDS011;22094;52.130;5.598;2023-04-15T07:35:55;9.57;;;7.75;;
23716;SDS011;22094;52.130;5.598;2023-04-15T07:38:21;8.45;;;7.32;;
23716;SDS011;22094;52.130;5.598;2023-04-15T07:40:47;11.02;;;7.18;;
23716;SDS011;22094;52.130;5.598;2023-04-15T07:43:13;7.85;;;6.72;;
23716;SDS011;22094;52.130;5.598;2023-04-15T07:45:39;8.68;;;6.78;;
23716;SDS011;22094;52.130;5.598;2023-04-15T07:48:04;9.73;;;6.85;;
23716;SDS011;22094;52.130;5.598;2023-04-15T07:50:30;9.30;;;7.43;;
23716;SDS011;22094;52.130;5.598;2023-04-15T07:52:56;9.30;;;7.40;;
23716;SDS011;22094;52.130;5.598;2023-04-15T07:55:22;10.20;;;8.13;;
23716;SDS011;22094;52.130;5.598;2023-04-15T07:57:48;10.48;;;8.57;;
23716;SDS011;22094;52.130;5.598;2023-04-15T08:00:14;11.55;;;8.90;;
23716;SDS011;22094;52.130;5.598;2023-04-15T08:02:41;10.25;;;8.52;;
23716;SDS011;22094;52.130;5.598;2023-04-15T08:05:07;10.93;;;8.80;;
23716;SDS011;22094;52.130;5.598;2023-04-15T08:07:35;9.48;;;8.27;;
23716;SDS011;22094;52.130;5.598;2023-04-15T08:10:01;11.02;;;8.35;;
23716;SDS011;22094;52.130;5.598;2023-04-15T08:12:27;11.65;;;7.65;;
23716;SDS011;22094;52.130;5.598;2023-04-15T08:14:53;10.07;;;8.15;;
23716;SDS011;22094;52.130;5.598;2023-04-15T08:17:20;10.00;;;7.50;;
23716;SDS011;22094;52.130;5.598;2023-04-15T08:19:45;10.35;;;6.72;;
23716;SDS011;22094;52.130;5.598;2023-04-15T08:22:12;7.63;;;6.82;;
23716;SDS011;22094;52.130;5.598;2023-04-15T08:24:38;9.10;;;6.32;;
23716;SDS011;22094;52.130;5.598;2023-04-15T08:27:04;8.15;;;6.32;;
23716;SDS011;22094;52.130;5.598;2023-04-15T08:29:31;10.40;;;6.47;;
23716;SDS011;22094;52.130;5.598;2023-04-15T08:31:58;7.15;;;5.97;;
23716;SDS011;22094;52.130;5.598;2023-04-15T08:34:24;10.02;;;5.90;;
23716;SDS011;22094;52.130;5.598;2023-04-15T08:36:50;6.47;;;5.75;;
23716;SDS011;22094;52.130;5.598;2023-04-15T08:39:16;7.03;;;6.22;;
23716;SDS011;22094;52.130;5.598;2023-04-15T08:41:46;7.28;;;5.57;;
23716;SDS011;22094;52.130;5.598;2023-04-15T08:44:24;8.93;;;5.47;;
23716;SDS011;22094;52.130;5.598;2023-04-15T08:46:52;8.50;;;5.00;;
23716;SDS011;22094;52.130;5.598;2023-04-15T08:49:21;5.35;;;4.82;;
23716;SDS011;22094;52.130;5.598;2023-04-15T08:51:50;8.02;;;4.88;;
23716;SDS011;22094;52.130;5.598;2023-04-15T08:54:16;6.03;;;5.13;;
23716;SDS011;22094;52.130;5.598;2023-04-15T08:56:42;5.28;;;4.78;;
23716;SDS011;22094;52.130;5.598;2023-04-15T08:59:09;7.30;;;4.55;;
23716;SDS011;22094;52.130;5.598;2023-04-15T09:01:36;7.95;;;5.05;;
23716;SDS011;22094;52.130;5.598;2023-04-15T09:04:02;5.57;;;4.97;;
23716;SDS011;22094;52.130;5.598;2023-04-15T09:06:30;5.90;;;4.45;;
23716;SDS011;22094;52.130;5.598;2023-04-15T09:08:56;5.35;;;4.35;;
23716;SDS011;22094;52.130;5.598;2023-04-15T09:11:22;7.28;;;4.68;;
23716;SDS011;22094;52.130;5.598;2023-04-15T09:13:48;5.65;;;4.40;;
23716;SDS011;22094;52.130;5.598;2023-04-15T09:16:14;6.63;;;4.05;;
23716;SDS011;22094;52.130;5.598;2023-04-15T09:18:40;7.38;;;3.35;;
23716;SDS011;22094;52.130;5.598;2023-04-15T09:21:16;4.90;;;3.47;;
23716;SDS011;22094;52.130;5.598;2023-04-15T09:23:55;4.10;;;3.70;;
23716;SDS011;22094;52.130;5.598;2023-04-15T09:26:33;7.32;;;3.95;;
23716;SDS011;22094;52.130;5.598;2023-04-15T09:29:04;3.95;;;3.55;;
23716;SDS011;22094;52.130;5.598;2023-04-15T09:31:31;4.57;;;3.40;;
23716;SDS011;22094;52.130;5.598;2023-04-15T09:33:57;3.88;;;3.45;;
23716;SDS011;22094;52.130;5.598;2023-04-15T09:36:23;3.55;;;3.25;;
23716;SDS011;22094;52.130;5.598;2023-04-15T09:38:53;4.22;;;3.15;;
23716;SDS011;22094;52.130;5.598;2023-04-15T09:41:20;3.55;;;3.20;;
23716;SDS011;22094;52.130;5.598;2023-04-15T09:43:47;3.97;;;3.00;;
23716;SDS011;22094;52.130;5.598;2023-04-15T09:46:13;4.95;;;3.33;;
23716;SDS011;22094;52.130;5.598;2023-04-15T09:48:39;2.40;;;2.20;;
23716;SDS011;22094;52.130;5.598;2023-04-15T09:51:05;4.45;;;2.67;;
23716;SDS011;22094;52.130;5.598;2023-04-15T09:53:32;3.97;;;2.25;;
23716;SDS011;22094;52.130;5.598;2023-04-15T09:56:00;2.53;;;2.17;;
23716;SDS011;22094;52.130;5.598;2023-04-15T09:58:27;3.75;;;2.35;;
23716;SDS011;22094;52.130;5.598;2023-04-15T10:00:58;3.35;;;2.25;;
23716;SDS011;22094;52.130;5.598;2023-04-15T10:03:26;6.35;;;2.58;;
23716;SDS011;22094;52.130;5.598;2023-04-15T10:05:54;6.60;;;2.60;;
23716;SDS011;22094;52.130;5.598;2023-04-15T10:08:21;5.45;;;2.78;;
23716;SDS011;22094;52.130;5.598;2023-04-15T10:10:49;6.65;;;2.38;;
23716;SDS011;22094;52.130;5.598;2023-04-15T10:13:17;2.95;;;2.67;;
23716;SDS011;22094;52.130;5.598;2023-04-15T10:15:44;3.40;;;3.10;;
23716;SDS011;22094;52.130;5.598;2023-04-15T10:18:15;4.88;;;3.15;;
23716;SDS011;22094;52.130;5.598;2023-04-15T10:20:45;4.22;;;3.10;;
23716;SDS011;22094;52.130;5.598;2023-04-15T10:23:11;3.78;;;3.42;;
23716;SDS011;22094;52.130;5.598;2023-04-15T10:25:38;4.97;;;3.90;;
23716;SDS011;22094;52.130;5.598;2023-04-15T10:28:05;4.32;;;3.40;;
23716;SDS011;22094;52.130;5.598;2023-04-15T10:30:32;4.95;;;3.60;;
23716;SDS011;22094;52.130;5.598;2023-04-15T10:32:58;4.18;;;3.50;;
23716;SDS011;22094;52.130;5.598;2023-04-15T10:35:24;4.97;;;3.17;;
23716;SDS011;22094;52.130;5.598;2023-04-15T10:37:50;5.35;;;3.58;;
23716;SDS011;22094;52.130;5.598;2023-04-15T10:40:23;4.55;;;3.47;;
23716;SDS011;22094;52.130;5.598;2023-04-15T10:42:59;4.10;;;3.60;;
23716;SDS011;22094;52.130;5.598;2023-04-15T10:45:26;4.72;;;3.53;;
23716;SDS011;22094;52.130;5.598;2023-04-15T10:47:56;4.93;;;3.47;;
23716;SDS011;22094;52.130;5.598;2023-04-15T10:50:25;4.35;;;3.47;;
23716;SDS011;22094;52.130;5.598;2023-04-15T10:52:52;3.97;;;3.55;;
23716;SDS011;22094;52.130;5.598;2023-04-15T10:55:20;3.03;;;2.80;;
23716;SDS011;22094;52.130;5.598;2023-04-15T10:57:50;4.15;;;2.97;;
23716;SDS011;22094;52.130;5.598;2023-04-15T11:00:29;4.90;;;3.08;;
23716;SDS011;22094;52.130;5.598;2023-04-15T11:02:57;4.95;;;3.20;;
23716;SDS011;22094;52.130;5.598;2023-04-15T11:08:10;13.13;;;3.13;;
23716;SDS011;22094;52.130;5.598;2023-04-15T11:13:03;4.18;;;2.97;;
23716;SDS011;22094;52.130;5.598;2023-04-15T11:15:45;3.42;;;3.13;;
23716;SDS011;22094;52.130;5.598;2023-04-15T11:18:24;5.63;;;3.08;;
23716;SDS011;22094;52.130;5.598;2023-04-15T11:20:56;10.23;;;3.10;;
23716;SDS011;22094;52.130;5.598;2023-04-15T11:23:28;3.13;;;2.72;;
23716;SDS011;22094;52.130;5.598;2023-04-15T11:26:05;3.00;;;2.47;;
23716;SDS011;22094;52.130;5.598;2023-04-15T11:28:36;3.80;;;2.80;;
23716;SDS011;22094;52.130;5.598;2023-04-15T11:31:07;2.80;;;2.60;;
23716;SDS011;22094;52.130;5.598;2023-04-15T11:33:35;3.80;;;2.75;;
23716;SDS011;22094;52.130;5.598;2023-04-15T11:36:01;3.08;;;2.50;;
23716;SDS011;22094;52.130;5.598;2023-04-15T11:38:28;2.65;;;2.40;;
23716;SDS011;22094;52.130;5.598;2023-04-15T11:40:55;2.70;;;2.30;;
23716;SDS011;22094;52.130;5.598;2023-04-15T11:43:21;3.15;;;2.85;;
23716;SDS011;22094;52.130;5.598;2023-04-15T11:48:19;3.40;;;3.10;;
23716;SDS011;22094;52.130;5.598;2023-04-15T11:50:51;3.53;;;2.92;;
23716;SDS011;22094;52.130;5.598;2023-04-15T11:53:21;5.95;;;3.20;;
23716;SDS011;22094;52.130;5.598;2023-04-15T11:55:51;7.32;;;3.38;;
23716;SDS011;22094;52.130;5.598;2023-04-15T12:00:48;5.03;;;3.25;;
23716;SDS011;22094;52.130;5.598;2023-04-15T12:06:04;6.57;;;3.13;;
23716;SDS011;22094;52.130;5.598;2023-04-15T12:08:49;3.15;;;2.70;;
23716;SDS011;22094;52.130;5.598;2023-04-15T12:11:18;8.15;;;2.97;;
23716;SDS011;22094;52.130;5.598;2023-04-15T12:13:48;5.47;;;2.70;;
23716;SDS011;22094;52.130;5.598;2023-04-15T12:16:18;4.97;;;2.67;;
23716;SDS011;22094;52.130;5.598;2023-04-15T12:18:44;3.20;;;2.10;;
23716;SDS011;22094;52.130;5.598;2023-04-15T12:21:26;4.45;;;2.15;;
23716;SDS011;22094;52.130;5.598;2023-04-15T12:24:00;6.30;;;2.28;;
23716;SDS011;22094;52.130;5.598;2023-04-15T12:26:28;5.15;;;2.30;;
23716;SDS011;22094;52.130;5.598;2023-04-15T12:31:29;2.72;;;2.10;;
23716;SDS011;22094;52.130;5.598;2023-04-15T12:33:55;3.97;;;1.70;;
23716;SDS011;22094;52.130;5.598;2023-04-15T12:36:22;5.07;;;1.95;;
23716;SDS011;22094;52.130;5.598;2023-04-15T12:38:48;3.08;;;1.77;;
23716;SDS011;22094;52.130;5.598;2023-04-15T12:41:14;3.30;;;1.77;;
23716;SDS011;22094;52.130;5.598;2023-04-15T12:43:40;16.13;;;3.15;;
23716;SDS011;22094;52.130;5.598;2023-04-15T12:46:06;11.70;;;2.30;;
23716;SDS011;22094;52.130;5.598;2023-04-15T12:48:32;5.47;;;2.40;;
23716;SDS011;22094;52.130;5.598;2023-04-15T12:50:58;4.07;;;2.30;;
23716;SDS011;22094;52.130;5.598;2023-04-15T12:53:24;6.50;;;2.10;;
23716;SDS011;22094;52.130;5.598;2023-04-15T12:55:51;3.75;;;1.83;;
23716;SDS011;22094;52.130;5.598;2023-04-15T12:58:16;4.50;;;1.85;;
23716;SDS011;22094;52.130;5.598;2023-04-15T13:00:42;3.45;;;1.92;;
23716;SDS011;22094;52.130;5.598;2023-04-15T13:03:08;2.38;;;1.67;;
23716;SDS011;22094;52.130;5.598;2023-04-15T13:05:34;6.65;;;2.10;;
23716;SDS011;22094;52.130;5.598;2023-04-15T13:08:01;5.18;;;1.88;;
23716;SDS011;22094;52.130;5.598;2023-04-15T13:10:28;6.05;;;2.05;;
23716;SDS011;22094;52.130;5.598;2023-04-15T13:12:53;5.13;;;2.30;;
23716;SDS011;22094;52.130;5.598;2023-04-15T13:15:20;7.85;;;2.33;;
23716;SDS011;22094;52.130;5.598;2023-04-15T13:17:46;2.08;;;1.70;;
23716;SDS011;22094;52.130;5.598;2023-04-15T13:20:12;6.38;;;2.03;;
23716;SDS011;22094;52.130;5.598;2023-04-15T13:22:38;4.18;;;1.83;;
23716;SDS011;22094;52.130;5.598;2023-04-15T13:25:04;4.97;;;1.67;;
23716;SDS011;22094;52.130;5.598;2023-04-15T13:27:31;4.03;;;1.90;;
23716;SDS011;22094;52.130;5.598;2023-04-15T13:29:57;2.85;;;1.85;;
23716;SDS011;22094;52.130;5.598;2023-04-15T13:32:23;3.38;;;1.60;;
23716;SDS011;22094;52.130;5.598;2023-04-15T13:34:49;5.10;;;1.60;;
23716;SDS011;22094;52.130;5.598;2023-04-15T13:37:15;3.15;;;1.50;;
23716;SDS011;22094;52.130;5.598;2023-04-15T13:39:41;1.83;;;1.40;;
23716;SDS011;22094;52.130;5.598;2023-04-15T13:42:06;2.25;;;1.55;;
23716;SDS011;22094;52.130;5.598;2023-04-15T13:44:33;3.85;;;2.08;;
23716;SDS011;22094;52.130;5.598;2023-04-15T13:46:59;2.85;;;1.95;;
23716;SDS011;22094;52.130;5.598;2023-04-15T13:49:24;3.10;;;2.10;;
23716;SDS011;22094;52.130;5.598;2023-04-15T13:51:50;9.18;;;6.47;;
23716;SDS011;22094;52.130;5.598;2023-04-15T13:54:16;3.45;;;1.80;;
23716;SDS011;22094;52.130;5.598;2023-04-15T13:56:41;2.85;;;1.92;;
23716;SDS011;22094;52.130;5.598;2023-04-15T13:59:07;1.52;;;1.42;;
23716;SDS011;22094;52.130;5.598;2023-04-15T14:01:33;1.83;;;1.55;;
23716;SDS011;22094;52.130;5.598;2023-04-15T14:03:59;1.98;;;1.83;;
23716;SDS011;22094;52.130;5.598;2023-04-15T14:06:25;5.35;;;1.67;;
23716;SDS011;22094;52.130;5.598;2023-04-15T14:08:52;2.08;;;1.70;;
23716;SDS011;22094;52.130;5.598;2023-04-15T14:11:18;2.20;;;1.77;;
23716;SDS011;22094;52.130;5.598;2023-04-15T14:13:43;4.65;;;1.90;;
23716;SDS011;22094;52.130;5.598;2023-04-15T14:16:09;5.93;;;1.70;;
23716;SDS011;22094;52.130;5.598;2023-04-15T14:18:35;4.40;;;1.80;;
23716;SDS011;22094;52.130;5.598;2023-04-15T14:21:01;4.63;;;1.83;;
23716;SDS011;22094;52.130;5.598;2023-04-15T14:23:27;2.25;;;1.77;;
23716;SDS011;22094;52.130;5.598;2023-04-15T14:25:53;3.83;;;1.90;;
23716;SDS011;22094;52.130;5.598;2023-04-15T14:28:19;6.03;;;2.20;;
23716;SDS011;22094;52.130;5.598;2023-04-15T14:30:44;3.83;;;2.08;;
23716;SDS011;22094;52.130;5.598;2023-04-15T14:33:10;3.00;;;2.50;;
23716;SDS011;22094;52.130;5.598;2023-04-15T14:35:36;4.30;;;2.28;;
23716;SDS011;22094;52.130;5.598;2023-04-15T14:38:03;6.85;;;2.15;;
23716;SDS011;22094;52.130;5.598;2023-04-15T14:40:29;12.45;;;3.45;;
23716;SDS011;22094;52.130;5.598;2023-04-15T14:42:55;6.03;;;2.60;;
23716;SDS011;22094;52.130;5.598;2023-04-15T14:45:21;6.07;;;2.72;;
23716;SDS011;22094;52.130;5.598;2023-04-15T14:47:47;6.43;;;2.30;;